Time;durP1;ratioP1;P1;durP2;ratioP2;P2;SDS_P1;SDS_P2;PMS_P1;PMS_P2;Temp;Humidity;BMP_temperature;BMP_pressure;BME280_temperature;BME280_humidity;BME280_pressure;Samples;Min_cycle;Max_cycle;Signal;HPM_P1;HPM_P2
2022/03/21 00:02:14;;;;;;;;;79.75;63.50;;;;;6.49;31.80;101476.16;5040240;28;10127;-72
2022/03/21 00:04:42;;;;;;;;;75.67;59.67;;;;;6.44;31.35;101485.44;5056733;28;10031;-71
2022/03/21 00:07:11;;;;;;;;;85.75;68.25;;;;;6.44;31.75;101481.13;5107571;28;9346;-70
2022/03/21 00:09:41;;;;;;;;;80.25;64.00;;;;;6.40;31.64;101479.19;5092142;28;9891;-71
2022/03/21 00:12:10;;;;;;;;;85.75;67.75;;;;;6.38;32.18;101483.44;5092008;28;9456;-72
2022/03/21 00:14:41;;;;;;;;;93.75;71.00;;;;;6.38;32.92;101480.84;5092070;28;10344;-72
2022/03/21 00:17:10;;;;;;;;;103.50;88.50;;;;;6.34;33.49;101481.50;5068708;28;10633;-72
2022/03/21 00:19:38;;;;;;;;;94.25;77.00;;;;;6.05;33.80;101481.00;5052876;28;11327;-71
2022/03/21 00:22:07;;;;;;;;;93.75;72.50;;;;;5.96;33.79;101477.06;5068826;28;10847;-73
2022/03/21 00:24:38;;;;;;;;;104.00;85.00;;;;;5.96;33.75;101474.47;5069026;28;10802;-72
2022/03/21 00:27:12;;;;;;;;;99.75;82.25;;;;;5.92;33.62;101478.59;5052243;28;11037;-74
2022/03/21 00:29:48;;;;;;;;;100.00;87.25;;;;;5.24;35.27;101474.28;5035682;28;10734;-72
2022/03/21 00:32:18;;;;;;;;;96.25;78.75;;;;;5.18;35.12;101469.66;5068553;28;10986;-70
2022/03/21 00:34:46;;;;;;;;;90.00;70.25;;;;;5.28;34.58;101468.44;5070774;28;10734;-73
2022/03/21 00:37:15;;;;;;;;;86.00;68.25;;;;;5.32;34.38;101470.38;5088632;28;10223;-74
2022/03/21 00:39:44;;;;;;;;;86.00;66.25;;;;;5.37;34.14;101468.91;5088864;28;10047;-73
2022/03/21 00:42:14;;;;;;;;;87.00;67.25;;;;;5.43;33.84;101451.13;5088787;28;9770;-72
2022/03/21 00:44:42;;;;;;;;;87.75;68.50;;;;;5.47;33.99;101455.63;5088966;28;9691;-73
2022/03/21 00:47:14;;;;;;;;;89.50;70.00;;;;;5.51;34.53;101467.03;5072133;28;9974;-73
2022/03/21 00:49:43;;;;;;;;;86.25;66.25;;;;;5.54;34.44;101463.69;5109253;28;10094;-71
2022/03/21 00:52:12;;;;;;;;;90.25;70.75;;;;;5.54;34.43;101462.03;5089703;28;10245;-73
2022/03/21 00:54:40;;;;;;;;;92.75;69.00;;;;;5.54;34.36;101466.28;5089970;28;10059;-72
2022/03/21 00:57:09;;;;;;;;;87.75;70.75;;;;;5.53;34.14;101464.53;5091062;28;10141;-72
2022/03/21 00:59:39;;;;;;;;;83.25;65.50;;;;;5.51;34.76;101456.69;5090032;28;10440;-73
2022/03/21 01:02:13;;;;;;;;;75.00;58.75;;;;;5.51;34.25;101456.69;5091366;28;10506;-72
2022/03/21 01:04:42;;;;;;;;;79.00;64.25;;;;;5.47;34.66;101450.47;5089977;28;9611;-74
2022/03/21 01:07:11;;;;;;;;;78.33;63.33;;;;;5.45;34.17;101444.31;5072912;28;9698;-73
2022/03/21 01:09:39;;;;;;;;;81.33;63.33;;;;;5.45;34.24;101446.91;5090904;28;9415;-73
2022/03/21 01:12:09;;;;;;;;;71.00;58.33;;;;;5.43;33.73;101445.06;5068341;28;9350;-72
2022/03/21 01:14:39;;;;;;;;;77.00;61.00;;;;;5.43;34.13;101445.94;5068397;28;9247;-72
2022/03/21 01:17:08;;;;;;;;;76.33;61.33;;;;;5.42;34.05;101449.31;5051160;28;9410;-71
2022/03/21 01:19:36;;;;;;;;;83.50;64.75;;;;;5.40;33.96;101450.94;5051645;28;9359;-73
2022/03/21 01:22:06;;;;;;;;;86.00;67.25;;;;;5.33;34.30;101453.16;5035072;28;9587;-72
2022/03/21 01:24:35;;;;;;;;;81.00;63.25;;;;;5.28;34.50;101448.63;5068249;28;9639;-71
2022/03/21 01:27:05;;;;;;;;;82.33;62.67;;;;;5.08;34.61;101450.19;5067855;28;9649;-71
2022/03/21 01:29:34;;;;;;;;;74.67;62.67;;;;;5.05;34.47;101444.84;5067512;28;9315;-73
2022/03/21 01:32:05;;;;;;;;;80.33;62.00;;;;;5.04;34.79;101448.22;5034401;28;9381;-73
2022/03/21 01:34:34;;;;;;;;;76.00;60.67;;;;;4.92;34.54;101451.91;5050798;28;9513;-73
2022/03/21 01:37:02;;;;;;;;;70.33;56.00;;;;;4.67;35.60;101443.72;5067541;28;10200;-70
2022/03/21 01:39:34;;;;;;;;;87.00;67.25;;;;;4.76;35.34;101439.84;5067237;28;9235;-72
2022/03/21 01:42:02;;;;;;;;;77.33;63.00;;;;;4.81;35.24;101435.81;5034231;28;10516;-70
2022/03/21 01:44:31;;;;;;;;;80.50;64.75;;;;;4.87;35.39;101442.19;5050763;28;9678;-73
2022/03/21 01:47:01;;;;;;;;;74.00;59.75;;;;;4.89;34.84;101437.97;5050710;28;9575;-72
2022/03/21 01:49:32;;;;;;;;;79.75;65.50;;;;;4.94;35.28;101442.53;5075475;28;9656;-72
2022/03/21 01:52:01;;;;;;;;;85.75;66.75;;;;;4.96;34.97;101440.91;5100838;28;9608;-72
2022/03/21 01:57:16;;;;;;;;;87.25;70.00;;;;;4.99;34.80;101441.03;5091612;28;9598;-73
2022/03/21 01:59:48;;;;;;;;;80.25;64.75;;;;;4.99;34.95;101444.53;5110158;28;9801;-72
2022/03/21 02:02:16;;;;;;;;;77.50;63.00;;;;;4.85;34.84;101441.22;5110623;28;9569;-72
2022/03/21 02:04:47;;;;;;;;;72.33;56.67;;;;;4.78;35.11;101444.28;5092025;28;9404;-73
2022/03/21 02:07:17;;;;;;;;;78.33;63.33;;;;;4.75;35.22;101444.13;5092319;28;9399;-73
2022/03/21 02:09:46;;;;;;;;;80.50;66.00;;;;;4.75;35.25;101440.66;5092015;28;10282;-71
2022/03/21 02:12:16;;;;;;;;;80.25;65.25;;;;;4.77;35.55;101439.03;5092371;28;9543;-72
2022/03/21 02:14:45;;;;;;;;;50.75;44.75;;;;;4.76;35.00;101445.00;5110335;28;9483;-73
2022/03/21 02:17:19;;;;;;;;;82.00;63.50;;;;;4.78;35.32;101443.38;5109962;28;9529;-71
2022/03/21 02:19:51;;;;;;;;;81.00;63.00;;;;;4.80;35.44;101439.19;5091914;28;9564;-73
2022/03/21 02:22:29;;;;;;;;;79.75;63.25;;;;;4.84;34.81;101441.16;5091723;28;9538;-72
2022/03/21 02:25:03;;;;;;;;;82.25;65.00;;;;;4.85;35.17;101437.75;5091397;28;9647;-73
2022/03/21 02:27:35;;;;;;;;;83.50;64.75;;;;;4.83;34.96;101440.25;5090371;28;9552;-72
2022/03/21 02:30:05;;;;;;;;;83.00;67.50;;;;;4.85;35.38;101440.31;5109675;28;9788;-72
2022/03/21 02:32:34;;;;;;;;;87.00;68.25;;;;;4.84;35.38;101443.72;5074534;28;9787;-74
2022/03/21 02:35:04;;;;;;;;;87.00;68.50;;;;;4.82;35.69;101440.16;5109576;28;9771;-73
2022/03/21 02:37:33;;;;;;;;;87.25;68.50;;;;;4.81;35.90;101431.50;5091589;28;9870;-72
2022/03/21 02:40:03;;;;;;;;;88.00;70.75;;;;;4.82;35.95;101434.97;5057641;28;9871;-75
2022/03/21 02:42:32;;;;;;;;;87.50;66.50;;;;;4.81;36.48;101425.47;5058418;28;9969;-73
2022/03/21 02:45:02;;;;;;;;;92.25;71.25;;;;;4.81;36.23;101428.06;5090836;28;10740;-72
2022/03/21 02:47:30;;;;;;;;;85.50;68.50;;;;;4.79;36.31;101430.56;5091089;28;10063;-73
2022/03/21 02:50:02;;;;;;;;;86.75;67.75;;;;;4.81;36.42;101438.38;5090827;28;9875;-73
2022/03/21 02:52:31;;;;;;;;;88.50;67.00;;;;;4.78;36.10;101428.78;5090763;28;9733;-71
2022/03/21 02:55:00;;;;;;;;;82.25;65.25;;;;;4.73;35.92;101429.34;5057358;28;9945;-73
2022/03/21 02:57:31;;;;;;;;;84.75;67.75;;;;;4.61;36.23;101427.88;5109267;28;9717;-73
2022/03/21 02:59:59;;;;;;;;;81.00;64.50;;;;;4.48;36.79;101420.28;5109066;28;9831;-72
2022/03/21 03:02:30;;;;;;;;;82.50;64.75;;;;;4.51;36.79;101422.13;5109284;28;9503;-72
2022/03/21 03:04:58;;;;;;;;;81.25;66.50;;;;;4.53;36.35;101426.56;5109211;28;9728;-75
2022/03/21 03:07:27;;;;;;;;;74.75;62.25;;;;;4.54;36.50;101438.69;5109305;28;9607;-72
2022/03/21 03:09:56;;;;;;;;;79.00;64.00;;;;;4.54;36.22;101436.09;5108285;28;9614;-70
2022/03/21 03:12:24;;;;;;;;;87.25;68.50;;;;;4.54;36.49;101430.03;5056798;28;9708;-72
2022/03/21 03:14:53;;;;;;;;;81.50;66.00;;;;;4.55;36.24;101431.81;5000102;28;9539;-72
2022/03/21 03:17:21;;;;;;;;;86.33;68.33;;;;;4.53;36.36;101436.00;5065832;28;9627;-74
2022/03/21 03:19:51;;;;;;;;;84.50;66.00;;;;;4.55;36.45;101443.03;5065738;28;9471;-76
2022/03/21 03:22:22;;;;;;;;;85.25;68.25;;;;;4.56;36.53;101438.78;5063645;28;9546;-72
2022/03/21 03:24:52;;;;;;;;;88.00;67.75;;;;;4.58;36.82;101450.97;5016927;28;9790;-73
2022/03/21 03:27:21;;;;;;;;;88.00;69.25;;;;;4.58;36.75;101445.78;5048801;28;10624;-72
2022/03/21 03:29:49;;;;;;;;;92.75;72.00;;;;;4.56;37.07;101446.53;4999680;28;9936;-73
2022/03/21 03:32:18;;;;;;;;;88.75;67.75;;;;;4.53;37.09;101448.94;5032939;28;9764;-73
2022/03/21 03:34:47;;;;;;;;;89.00;70.50;;;;;4.50;36.97;101439.34;5065652;28;9601;-73
2022/03/21 03:37:18;;;;;;;;;79.00;62.75;;;;;4.43;36.86;101445.84;5065700;28;9815;-72
2022/03/21 03:39:47;;;;;;;;;81.75;64.75;;;;;4.43;36.76;101448.41;5065547;28;9804;-72
2022/03/21 03:42:16;;;;;;;;;81.25;65.75;;;;;4.43;36.61;101455.28;5025643;28;9563;-73
2022/03/21 03:44:45;;;;;;;;;84.67;67.00;;;;;4.44;37.16;101454.47;4993077;28;9479;-72
2022/03/21 03:47:13;;;;;;;;;90.50;71.25;;;;;4.43;36.92;101455.28;5047643;28;9417;-73
2022/03/21 03:49:42;;;;;;;;;87.00;67.75;;;;;4.40;37.25;101449.94;5065701;28;10047;-73
2022/03/21 03:52:11;;;;;;;;;83.00;67.25;;;;;4.35;36.63;101446.22;5048667;28;9845;-72
2022/03/21 03:54:41;;;;;;;;;91.25;69.00;;;;;4.34;36.31;101454.78;5080263;28;9619;-72
2022/03/21 03:57:11;;;;;;;;;94.25;72.75;;;;;4.33;36.00;101447.81;5068785;28;9856;-73
2022/03/21 03:59:40;;;;;;;;;94.75;71.50;;;;;4.25;37.14;101452.56;5018782;28;9969;-72
2022/03/21 04:02:10;;;;;;;;;88.25;68.25;;;;;4.27;36.92;101453.53;5086426;28;10125;-72
2022/03/21 04:04:39;;;;;;;;;88.00;69.50;;;;;4.28;37.29;101460.50;5069342;28;9941;-72
2022/03/21 04:07:08;;;;;;;;;91.75;70.75;;;;;4.30;37.15;101464.06;5069038;28;9943;-73
2022/03/21 04:09:36;;;;;;;;;87.50;68.25;;;;;4.30;37.10;101459.75;5085466;28;10035;-71
2022/03/21 04:12:07;;;;;;;;;80.00;57.75;;;;;4.28;37.38;101456.22;5068767;28;9856;-74
2022/03/21 04:14:36;;;;;;;;;91.25;71.25;;;;;4.29;37.31;101460.59;5086303;28;10041;-71
2022/03/21 04:17:05;;;;;;;;;89.75;69.50;;;;;4.27;36.95;101461.28;5086623;28;9910;-72
2022/03/21 04:19:34;;;;;;;;;91.75;72.75;;;;;4.28;37.23;101466.53;5087148;28;9962;-72
2022/03/21 04:22:02;;;;;;;;;103.25;85.00;;;;;4.26;38.37;101465.56;5090412;28;10203;-73
2022/03/21 04:24:31;;;;;;;;;102.00;84.25;;;;;4.21;38.47;101469.56;5091573;28;11008;-72
2022/03/21 04:27:00;;;;;;;;;100.50;81.25;;;;;4.20;39.08;101466.94;5091457;28;10838;-73
2022/03/21 04:29:30;;;;;;;;;102.50;77.00;;;;;4.18;38.69;101463.34;5091642;28;10992;-73
2022/03/21 04:31:59;;;;;;;;;97.75;75.25;;;;;4.15;37.85;101464.06;5090618;28;10650;-73
2022/03/21 04:34:28;;;;;;;;;105.00;86.50;;;;;4.13;38.80;101463.09;5090339;28;10339;-71
2022/03/21 04:36:57;;;;;;;;;102.00;83.50;;;;;4.12;38.98;101470.75;5091863;28;10709;-71
2022/03/21 04:39:25;;;;;;;;;99.50;79.75;;;;;4.08;39.02;101468.03;5091295;28;12153;-72
2022/03/21 04:41:54;;;;;;;;;101.00;79.00;;;;;4.06;39.31;101473.88;5073557;28;10634;-70
2022/03/21 04:44:25;;;;;;;;;101.50;78.75;;;;;4.03;38.83;101477.19;5056428;28;10765;-72
2022/03/21 04:46:55;;;;;;;;;100.00;75.75;;;;;3.97;38.42;101479.44;5055589;28;10718;-71
2022/03/21 04:49:24;;;;;;;;;96.50;75.00;;;;;3.95;38.90;101473.28;5073265;28;10554;-74
2022/03/21 04:51:53;;;;;;;;;107.00;78.25;;;;;3.84;38.83;101475.25;5089485;28;10374;-73
2022/03/21 04:54:21;;;;;;;;;100.00;75.50;;;;;3.48;40.42;101471.41;5090976;28;11402;-73
2022/03/21 04:56:50;;;;;;;;;97.00;75.50;;;;;3.34;40.32;101483.47;5089877;28;10371;-71
2022/03/21 04:59:18;;;;;;;;;97.50;78.00;;;;;3.26;40.85;101479.53;5055313;28;10487;-71
2022/03/21 05:01:47;;;;;;;;;58.75;46.25;;;;;3.38;40.62;101485.41;5090961;28;10365;-71
2022/03/21 05:04:19;;;;;;;;;104.75;89.50;;;;;3.53;40.56;101485.44;5055859;28;10554;-74
2022/03/21 05:06:48;;;;;;;;;105.00;89.25;;;;;3.60;40.67;101482.44;5089541;28;11202;-74
2022/03/21 05:09:16;;;;;;;;;101.50;78.75;;;;;3.71;40.09;101485.66;5090711;28;11319;-73
2022/03/21 05:11:45;;;;;;;;;100.25;79.50;;;;;3.83;39.70;101493.22;5059287;28;10509;-72
2022/03/21 05:14:14;;;;;;;;;104.25;82.75;;;;;3.92;39.65;101503.19;5111431;28;10353;-72
2022/03/21 05:16:43;;;;;;;;;95.75;75.50;;;;;4.00;40.33;101504.50;5075333;28;10731;-73
2022/03/21 05:19:11;;;;;;;;;92.75;72.75;;;;;4.05;38.93;101498.81;5109822;28;10855;-72
2022/03/21 05:21:42;;;;;;;;;86.50;71.00;;;;;4.10;38.99;101506.81;5059019;28;10142;-73
2022/03/21 05:32:29;;;;;;;;;94.75;75.00;;;;;3.58;40.46;101517.56;5044688;28;10079;-71
2022/03/21 05:37:42;;;;;;;;;90.25;69.25;;;;;3.46;41.05;101522.91;5027291;28;9969;-73
2022/03/21 05:42:57;;;;;;;;;127.75;111.75;;;;;3.86;40.71;101522.66;5047256;28;10526;-74
2022/03/21 05:45:26;;;;;;;;;96.75;74.25;;;;;3.49;41.61;101522.19;5047039;28;11567;-74
2022/03/21 05:50:42;;;;;;;;;92.75;73.00;;;;;3.23;42.83;101525.75;5030241;28;10523;-71
2022/03/21 05:53:12;;;;;;;;;97.25;75.50;;;;;3.31;42.92;101525.44;5030677;28;10538;-71
2022/03/21 05:55:40;;;;;;;;;101.25;76.25;;;;;3.47;42.76;101527.22;5031327;28;10456;-73
2022/03/21 05:58:09;;;;;;;;;97.50;75.25;;;;;3.79;41.57;101525.69;5030438;28;10443;-73
2022/03/21 06:00:38;;;;;;;;;99.50;77.50;;;;;4.10;40.58;101530.03;5030148;28;10306;-72
2022/03/21 06:03:08;;;;;;;;;93.25;72.75;;;;;4.37;39.97;101522.13;5030240;28;10448;-72
2022/03/21 06:05:37;;;;;;;;;96.50;77.50;;;;;4.61;40.22;101525.16;5013292;28;10566;-73
2022/03/21 06:08:06;;;;;;;;;99.50;77.00;;;;;4.86;39.59;101524.84;5029823;28;11282;-73
2022/03/21 06:10:37;;;;;;;;;96.50;77.25;;;;;5.09;39.76;101526.06;5045954;28;11277;-74
2022/03/21 06:13:06;;;;;;;;;92.75;72.50;;;;;5.31;39.05;101516.84;5046136;28;10454;-72
2022/03/21 06:15:36;;;;;;;;;98.00;75.25;;;;;5.50;38.74;101521.28;5076551;28;11908;-72
2022/03/21 06:18:09;;;;;;;;;103.00;84.50;;;;;5.71;38.46;101504.28;5069626;28;10627;-73
2022/03/21 06:20:39;;;;;;;;;97.50;79.50;;;;;5.91;38.00;101509.56;5088816;28;10795;-72
2022/03/21 06:23:08;;;;;;;;;97.50;74.75;;;;;6.05;37.74;101512.06;5087675;28;10529;-73
2022/03/21 06:25:38;;;;;;;;;103.25;84.25;;;;;6.16;38.06;101509.09;5088740;28;10726;-73
2022/03/21 06:28:08;;;;;;;;;102.25;82.25;;;;;6.30;37.83;101515.00;5087442;28;10954;-73
2022/03/21 06:30:37;;;;;;;;;98.75;81.25;;;;;6.41;37.94;101517.28;5099617;28;10781;-71
2022/03/21 06:33:10;;;;;;;;;99.00;76.75;;;;;6.51;37.77;101523.78;5109163;28;11007;-74
2022/03/21 06:35:38;;;;;;;;;104.00;89.25;;;;;6.67;37.66;101517.59;5089694;28;10684;-72
2022/03/21 06:38:10;;;;;;;;;99.00;81.75;;;;;6.77;37.16;101516.38;5085377;28;11914;-73
2022/03/21 06:40:41;;;;;;;;;101.25;86.75;;;;;6.89;36.88;101518.63;5033370;28;11078;-72
2022/03/21 06:43:10;;;;;;;;;102.25;85.50;;;;;6.98;36.79;101514.75;5065369;28;11005;-72
2022/03/21 06:45:38;;;;;;;;;97.75;81.25;;;;;7.16;36.32;101509.50;5049231;28;11798;-74
2022/03/21 06:48:07;;;;;;;;;108.25;91.50;;;;;7.26;36.39;101512.50;5066083;28;10927;-74
2022/03/21 06:50:36;;;;;;;;;93.75;78.50;;;;;7.40;36.13;101507.09;5049008;28;12616;-73
2022/03/21 06:53:05;;;;;;;;;103.50;93.75;;;;;7.50;35.94;101517.91;5065429;28;10839;-72
2022/03/21 06:55:34;;;;;;;;;99.50;86.50;;;;;7.56;35.74;101513.88;5065495;28;11496;-71
2022/03/21 06:58:06;;;;;;;;;101.75;89.50;;;;;7.59;35.80;101514.00;5065071;28;11238;-72
2022/03/21 07:00:34;;;;;;;;;108.25;95.50;;;;;7.36;35.67;101517.28;5080509;28;11093;-74
2022/03/21 07:03:04;;;;;;;;;99.00;84.25;;;;;7.01;36.61;101521.78;5065723;28;11202;-71
2022/03/21 07:05:33;;;;;;;;;105.00;94.00;;;;;6.65;37.37;101524.44;5065443;28;11442;-73
2022/03/21 07:08:02;;;;;;;;;107.50;96.00;;;;;6.80;36.94;101522.56;5065417;28;11543;-72
2022/03/21 07:10:32;;;;;;;;;103.00;91.25;;;;;6.29;38.23;101518.38;5086658;28;11533;-71
2022/03/21 07:13:01;;;;;;;;;91.00;74.75;;;;;6.51;37.63;101533.28;5086885;28;11623;-72
2022/03/21 07:15:31;;;;;;;;;102.75;88.25;;;;;6.76;37.33;101517.16;5088818;28;11147;-72
2022/03/21 07:18:00;;;;;;;;;101.50;82.00;;;;;7.05;36.97;101517.63;5086601;28;11138;-72
2022/03/21 07:20:28;;;;;;;;;93.75;72.25;;;;;7.39;36.19;101520.00;5086397;28;11166;-71
2022/03/21 07:22:59;;;;;;;;;99.00;80.50;;;;;7.70;35.43;101522.25;5087754;28;11281;-73
2022/03/21 07:25:28;;;;;;;;;102.00;91.50;;;;;7.98;34.75;101524.31;5086573;28;11076;-73
2022/03/21 07:27:57;;;;;;;;;100.25;88.50;;;;;8.25;34.37;101509.81;5086434;28;11283;-75
2022/03/21 07:30:26;;;;;;;;;97.25;82.75;;;;;8.42;33.85;101521.78;5085363;28;11116;-72
2022/03/21 07:32:57;;;;;;;;;98.75;80.25;;;;;8.61;33.43;101525.13;5003763;28;11096;-72
2022/03/21 07:35:26;;;;;;;;;100.50;85.50;;;;;8.81;33.39;101518.09;5065247;28;11178;-71
2022/03/21 07:37:57;;;;;;;;;99.00;88.00;;;;;8.93;32.74;101514.25;5064755;28;11149;-71
2022/03/21 07:40:26;;;;;;;;;96.50;81.25;;;;;9.08;33.07;101523.47;5015552;28;11228;-75
2022/03/21 07:42:55;;;;;;;;;99.50;88.25;;;;;9.22;32.01;101521.38;5065220;28;11964;-72
2022/03/21 07:48:12;;;;;;;;;99.75;91.75;;;;;9.51;32.32;101519.84;5085143;28;11490;-73
2022/03/21 07:50:41;;;;;;;;;98.75;86.75;;;;;9.60;31.15;101517.53;5085040;28;11248;-75
2022/03/21 07:53:10;;;;;;;;;97.50;81.00;;;;;9.72;31.62;101515.38;5084748;28;11079;-72
2022/03/21 07:55:39;;;;;;;;;96.00;81.25;;;;;9.85;30.87;101515.78;5070883;28;11081;-71
2022/03/21 07:58:08;;;;;;;;;95.75;83.25;;;;;9.97;30.42;101510.13;5072078;28;10932;-71
2022/03/21 08:00:36;;;;;;;;;96.50;88.25;;;;;9.99;30.25;101509.31;5055920;28;11625;-73
2022/03/21 08:03:07;;;;;;;;;91.75;75.00;;;;;10.15;30.69;101506.41;5091340;28;10925;-73
2022/03/21 08:05:37;;;;;;;;;88.00;68.50;;;;;10.29;29.86;101503.34;5091922;28;10898;-74
2022/03/21 08:08:07;;;;;;;;;55.25;42.25;;;;;10.43;29.98;101503.81;5090179;28;10595;-70
2022/03/21 08:10:35;;;;;;;;;94.25;81.25;;;;;10.54;29.20;101511.13;5073540;28;10762;-73
2022/03/21 08:13:05;;;;;;;;;81.25;66.50;;;;;10.63;28.97;101512.28;5089927;28;10678;-73
2022/03/21 08:15:35;;;;;;;;;83.00;64.75;;;;;10.73;28.22;101503.88;5091672;28;11199;-72
2022/03/21 08:18:05;;;;;;;;;81.00;63.50;;;;;10.77;27.95;101499.63;5090175;28;10657;-72
2022/03/21 08:20:35;;;;;;;;;84.25;67.75;;;;;10.90;28.42;101501.78;5038987;28;9945;-71
2022/03/21 08:23:07;;;;;;;;;86.75;70.00;;;;;10.58;27.07;101500.81;5039061;28;10073;-72
2022/03/21 08:25:37;;;;;;;;;82.25;65.00;;;;;10.63;27.91;101500.09;5091580;28;10316;-73
2022/03/21 08:28:06;;;;;;;;;88.75;73.50;;;;;10.79;28.17;101506.66;5039317;28;10035;-72
2022/03/21 08:30:36;;;;;;;;;86.25;70.25;;;;;10.81;28.20;101501.50;5091007;28;10482;-71
2022/03/21 08:33:06;;;;;;;;;90.75;77.00;;;;;10.91;28.17;101503.56;5089553;28;10956;-72
2022/03/21 08:35:36;;;;;;;;;77.50;60.75;;;;;11.00;27.43;101509.06;5089636;28;11380;-73
2022/03/21 08:38:08;;;;;;;;;91.50;74.25;;;;;11.05;27.70;101512.66;5091177;28;9881;-72
2022/03/21 08:40:37;;;;;;;;;93.75;79.25;;;;;11.16;27.35;101505.16;5096258;28;10372;-72
2022/03/21 08:43:07;;;;;;;;;93.50;85.00;;;;;11.06;27.95;101496.19;5058658;28;10872;-72
2022/03/21 08:45:36;;;;;;;;;88.75;73.50;;;;;11.07;28.26;101499.66;5109963;28;10870;-72
2022/03/21 08:48:05;;;;;;;;;93.50;83.50;;;;;11.17;27.44;101503.41;5109469;28;10751;-70
2022/03/21 08:50:34;;;;;;;;;92.25;78.50;;;;;11.19;27.67;101500.03;5075255;28;11150;-72
2022/03/21 08:53:03;;;;;;;;;101.25;85.75;;;;;11.20;27.82;101498.28;5109466;28;10684;-71
2022/03/21 08:55:33;;;;;;;;;94.00;79.25;;;;;11.27;28.05;101495.03;5110757;28;11003;-72
2022/03/21 08:58:02;;;;;;;;;94.50;88.00;;;;;11.21;27.99;101494.81;5102354;28;11091;-71
2022/03/21 09:00:31;;;;;;;;;86.25;70.00;;;;;11.29;28.33;101496.81;5092513;28;11069;-72
2022/03/21 09:02:59;;;;;;;;;96.75;89.75;;;;;11.42;28.06;101497.19;5091029;28;11543;-71
2022/03/21 09:05:28;;;;;;;;;102.75;95.00;;;;;11.56;27.98;101508.00;5094163;28;11531;-73
2022/03/21 09:07:57;;;;;;;;;97.00;86.25;;;;;11.59;27.97;101508.97;5092046;28;11557;-72
2022/03/21 09:10:26;;;;;;;;;100.00;90.75;;;;;11.65;28.29;101503.03;5092654;28;11569;-74
2022/03/21 09:12:55;;;;;;;;;107.50;97.50;;;;;11.63;27.84;101492.53;5090865;28;12278;-72
2022/03/21 09:15:25;;;;;;;;;99.00;89.75;;;;;11.71;28.26;101490.09;5054629;28;11537;-75
2022/03/21 09:17:57;;;;;;;;;104.50;94.50;;;;;11.69;27.71;101492.66;5089909;28;11352;-71
2022/03/21 09:20:26;;;;;;;;;98.50;92.00;;;;;11.72;27.58;101491.88;5090228;28;11657;-72
2022/03/21 09:22:54;;;;;;;;;96.00;88.50;;;;;11.44;27.62;101485.03;5090251;28;11411;-74
2022/03/21 09:25:23;;;;;;;;;99.50;89.50;;;;;11.47;28.12;101480.78;5089977;28;10989;-72
2022/03/21 09:27:55;;;;;;;;;94.00;84.00;;;;;11.41;27.84;101477.09;5089875;28;11123;-73
2022/03/21 09:30:24;;;;;;;;;89.75;78.00;;;;;11.13;27.82;101471.09;5090019;28;11071;-72
2022/03/21 09:32:52;;;;;;;;;94.00;85.00;;;;;11.15;27.95;101469.41;5070665;28;11104;-73
2022/03/21 09:35:22;;;;;;;;;88.25;77.00;;;;;11.00;27.86;101459.47;5067117;28;11181;-74
2022/03/21 09:37:50;;;;;;;;;96.50;83.50;;;;;10.42;28.79;101463.81;5050434;28;10751;-72
2022/03/21 09:40:20;;;;;;;;;93.25;77.75;;;;;10.33;29.11;101471.34;5050399;28;11117;-71
2022/03/21 09:42:49;;;;;;;;;90.75;78.75;;;;;10.64;28.10;101460.16;5066856;28;10906;-72
2022/03/21 09:45:19;;;;;;;;;84.25;69.00;;;;;10.77;28.57;101457.88;5050269;28;10524;-73
2022/03/21 09:50:36;;;;;;;;;86.25;67.25;;;;;11.00;27.14;101454.25;5066725;28;10134;-70
2022/03/21 09:53:06;;;;;;;;;89.00;74.25;;;;;10.93;27.29;101455.78;5033619;28;10278;-72
2022/03/21 09:55:35;;;;;;;;;82.75;63.50;;;;;10.97;27.07;101458.47;5066889;28;10910;-73
2022/03/21 09:58:04;;;;;;;;;86.25;69.00;;;;;10.92;26.59;101453.13;5050000;28;10135;-73
2022/03/21 10:00:34;;;;;;;;;83.25;65.50;;;;;10.66;27.25;101458.47;5033930;28;9958;-71
2022/03/21 10:03:03;;;;;;;;;81.75;63.25;;;;;10.96;27.38;101454.09;5016869;28;9921;-75
2022/03/21 10:05:38;;;;;;;;;78.00;63.00;;;;;11.23;28.18;101461.84;5051819;28;10020;-72
2022/03/21 10:08:16;;;;;;;;;80.00;63.00;;;;;11.36;26.63;101450.88;5087922;28;9730;-74
2022/03/21 10:10:59;;;;;;;;;75.75;60.75;;;;;11.43;26.44;101451.91;5088864;28;9778;-72
2022/03/21 10:13:30;;;;;;;;;78.00;62.50;;;;;11.63;26.21;101442.88;5088754;28;9993;-71
2022/03/21 10:16:11;;;;;;;;;85.00;68.75;;;;;11.72;26.45;101442.22;5069737;28;9709;-71
2022/03/21 10:18:57;;;;;;;;;73.00;58.00;;;;;11.80;25.08;101437.19;5088423;28;9784;-73
2022/03/21 10:21:27;;;;;;;;;73.00;57.67;;;;;11.64;24.88;101438.53;5088710;28;9614;-73
2022/03/21 10:24:02;;;;;;;;;68.33;55.67;;;;;11.80;25.11;101429.34;5087428;28;9050;-73
2022/03/21 10:26:32;;;;;;;;;58.25;47.25;;;;;11.87;23.06;101426.94;5088637;28;9303;-72
2022/03/21 10:29:04;;;;;;;;;61.50;50.25;;;;;12.07;24.65;101424.81;5086644;28;8870;-72
2022/03/21 10:31:40;;;;;;;;;53.50;45.25;;;;;12.26;23.33;101420.00;5104176;28;8949;-72
2022/03/21 10:34:10;;;;;;;;;52.75;43.25;;;;;12.38;23.07;101425.53;5053004;28;8994;-74
2022/03/21 10:37:01;;;;;;;;;50.75;42.75;;;;;12.36;22.86;101410.63;5088759;28;8840;-71
2022/03/21 10:39:32;;;;;;;;;40.25;35.25;;;;;12.50;21.60;101403.97;5088970;28;8928;-72
2022/03/21 10:42:03;;;;;;;;;41.75;37.75;;;;;12.49;20.92;101407.44;5087296;28;8855;-71
2022/03/21 10:44:34;;;;;;;;;44.50;36.25;;;;;12.56;19.77;101408.47;5069374;28;9010;-72
2022/03/21 10:47:07;;;;;;;;;40.00;36.50;;;;;12.59;19.89;101401.56;5086706;28;8823;-72
2022/03/21 10:49:37;;;;;;;;;47.50;38.50;;;;;12.82;20.90;101401.16;5086859;28;8843;-72
2022/03/21 10:52:08;;;;;;;;;38.25;36.00;;;;;12.93;19.25;101393.50;5086893;28;8900;-72
2022/03/21 10:54:42;;;;;;;;;42.00;36.75;;;;;12.66;19.74;101389.47;5053395;28;9637;-75
2022/03/21 10:57:31;;;;;;;;;51.75;41.25;;;;;12.80;20.12;101388.03;5086899;28;8874;-72
2022/03/21 11:00:17;;;;;;;;;32.50;28.75;;;;;12.96;19.27;101388.31;5088618;28;8843;-73
2022/03/21 11:02:55;;;;;;;;;41.00;35.00;;;;;13.08;19.57;101380.72;5088115;28;8856;-71
2022/03/21 11:05:25;;;;;;;;;43.00;38.25;;;;;13.26;20.49;101380.16;5086771;28;8918;-72
2022/03/21 11:07:54;;;;;;;;;45.00;37.00;;;;;13.42;19.36;101373.47;5088013;28;8835;-74
2022/03/21 11:10:25;;;;;;;;;34.00;32.50;;;;;13.57;19.27;101379.00;5086965;28;8844;-72
2022/03/21 11:12:55;;;;;;;;;31.00;30.25;;;;;13.61;18.33;101367.69;5088254;28;8839;-72
2022/03/21 11:15:25;;;;;;;;;8.75;2.50;;;;;13.65;18.73;101368.63;5087886;28;8862;-73
2022/03/21 11:17:56;;;;;;;;;33.00;31.00;;;;;13.83;18.29;101365.41;5069207;28;8859;-74
2022/03/21 11:20:28;;;;;;;;;34.25;33.00;;;;;13.80;17.71;101361.00;5087581;28;8856;-71
2022/03/21 11:22:57;;;;;;;;;35.00;33.50;;;;;13.97;17.58;101361.28;5087992;28;8844;-72
2022/03/21 11:25:30;;;;;;;;;26.75;24.50;;;;;14.06;17.30;101355.25;5052072;28;9002;-72
2022/03/21 11:28:37;;;;;;;;;38.50;33.00;;;;;14.29;16.96;101347.72;5087778;28;8843;-71
2022/03/21 11:31:35;;;;;;;;;34.50;31.75;;;;;14.37;16.70;101348.69;5085972;28;8862;-74
2022/03/21 11:34:22;;;;;;;;;28.00;26.00;;;;;14.55;15.71;101334.03;5086866;28;8979;-73
2022/03/21 11:36:51;;;;;;;;;31.25;29.00;;;;;14.59;16.00;101335.84;5087743;28;8958;-71
2022/03/21 11:39:21;;;;;;;;;16.75;13.25;;;;;14.53;15.83;101328.75;5097248;28;8813;-73
2022/03/21 11:42:06;;;;;;;;;31.75;28.25;;;;;14.79;15.78;101331.72;5108389;28;8853;-74
2022/03/21 11:44:35;;;;;;;;;28.50;27.25;;;;;14.94;15.54;101319.63;5072164;28;8864;-70
2022/03/21 11:47:24;;;;;;;;;31.25;27.75;;;;;15.05;14.85;101323.25;5108012;28;8922;-73
2022/03/21 11:49:55;;;;;;;;;33.00;31.50;;;;;15.15;15.57;101311.94;5108158;28;8898;-72
2022/03/21 11:52:23;;;;;;;;;31.75;30.00;;;;;15.24;15.95;101321.66;5119898;27;9652;-73
2022/03/21 11:54:53;;;;;;;;;31.25;27.50;;;;;15.50;15.49;101308.75;5123464;28;9666;-72
2022/03/21 11:57:27;;;;;;;;;33.25;29.75;;;;;15.66;15.39;101300.97;5089762;28;8872;-70